sensor_id;sensor_type;location;lat;lon;timestamp;temperature;humidity
47805;DHT22;33568;45.286;9.900;2024-02-23T00:00:07;11.00;99.90
47805;DHT22;33568;45.286;9.900;2024-02-23T00:02:37;11.00;99.90
47805;DHT22;33568;45.286;9.900;2024-02-23T00:05:04;11.00;99.90
47805;DHT22;33568;45.286;9.900;2024-02-23T00:07:30;11.00;99.90
47805;DHT22;33568;45.286;9.900;2024-02-23T00:09:57;11.00;99.90
47805;DHT22;33568;45.286;9.900;2024-02-23T00:12:23;11.00;99.90
47805;DHT22;33568;45.286;9.900;2024-02-23T00:14:49;10.90;99.90
47805;DHT22;33568;45.286;9.900;2024-02-23T00:17:17;10.90;99.90
47805;DHT22;33568;45.286;9.900;2024-02-23T00:19:45;10.90;99.90
47805;DHT22;33568;45.286;9.900;2024-02-23T00:22:12;11.00;99.90
47805;DHT22;33568;45.286;9.900;2024-02-23T00:24:39;11.00;99.90
47805;DHT22;33568;45.286;9.900;2024-02-23T00:27:06;11.00;99.90
47805;DHT22;33568;45.286;9.900;2024-02-23T00:29:33;11.00;99.90
47805;DHT22;33568;45.286;9.900;2024-02-23T00:31:59;11.00;99.90
47805;DHT22;33568;45.286;9.900;2024-02-23T00:34:25;10.80;99.90
47805;DHT22;33568;45.286;9.900;2024-02-23T00:36:52;10.90;99.90
47805;DHT22;33568;45.286;9.900;2024-02-23T00:39:19;10.90;99.90
47805;DHT22;33568;45.286;9.900;2024-02-23T00:41:45;10.90;99.90
47805;DHT22;33568;45.286;9.900;2024-02-23T00:44:11;11.00;99.90
47805;DHT22;33568;45.286;9.900;2024-02-23T00:46:38;10.90;99.90
47805;DHT22;33568;45.286;9.900;2024-02-23T00:49:05;10.90;99.90
47805;DHT22;33568;45.286;9.900;2024-02-23T00:51:31;10.90;99.90
47805;DHT22;33568;45.286;9.900;2024-02-23T00:53:58;11.00;99.90
47805;DHT22;33568;45.286;9.900;2024-02-23T00:56:24;11.00;99.90
47805;DHT22;33568;45.286;9.900;2024-02-23T00:58:51;11.00;99.90
47805;DHT22;33568;45.286;9.900;2024-02-23T01:01:17;11.00;99.90
47805;DHT22;33568;45.286;9.900;2024-02-23T01:03:44;11.10;99.90
47805;DHT22;33568;45.286;9.900;2024-02-23T01:06:10;11.10;99.90
47805;DHT22;33568;45.286;9.900;2024-02-23T01:08:36;11.10;99.90
47805;DHT22;33568;45.286;9.900;2024-02-23T01:11:03;11.10;99.90
47805;DHT22;33568;45.286;9.900;2024-02-23T01:13:29;11.10;99.90
47805;DHT22;33568;45.286;9.900;2024-02-23T01:15:56;11.00;99.90
47805;DHT22;33568;45.286;9.900;2024-02-23T01:18:22;11.00;99.90
47805;DHT22;33568;45.286;9.900;2024-02-23T01:20:48;11.00;99.90
47805;DHT22;33568;45.286;9.900;2024-02-23T01:23:15;11.10;99.90
47805;DHT22;33568;45.286;9.900;2024-02-23T01:25:41;11.10;99.90
47805;DHT22;33568;45.286;9.900;2024-02-23T01:28:07;11.00;99.90
47805;DHT22;33568;45.286;9.900;2024-02-23T01:30:34;11.10;99.90
47805;DHT22;33568;45.286;9.900;2024-02-23T01:33:00;11.10;99.90
47805;DHT22;33568;45.286;9.900;2024-02-23T01:35:26;11.10;99.90
47805;DHT22;33568;45.286;9.900;2024-02-23T01:37:53;11.10;99.90
47805;DHT22;33568;45.286;9.900;2024-02-23T01:40:20;11.10;99.90
47805;DHT22;33568;45.286;9.900;2024-02-23T01:42:46;11.00;99.90
47805;DHT22;33568;45.286;9.900;2024-02-23T01:45:12;11.10;99.90
47805;DHT22;33568;45.286;9.900;2024-02-23T01:47:38;11.10;99.90
47805;DHT22;33568;45.286;9.900;2024-02-23T01:50:05;11.10;99.90
47805;DHT22;33568;45.286;9.900;2024-02-23T01:52:34;11.10;99.90
47805;DHT22;33568;45.286;9.900;2024-02-23T01:55:01;11.10;99.90
47805;DHT22;33568;45.286;9.900;2024-02-23T01:57:27;11.10;99.90
47805;DHT22;33568;45.286;9.900;2024-02-23T01:59:55;11.10;99.90
47805;DHT22;33568;45.286;9.900;2024-02-23T02:02:23;11.10;99.90
47805;DHT22;33568;45.286;9.900;2024-02-23T02:04:50;11.10;99.90
47805;DHT22;33568;45.286;9.900;2024-02-23T02:07:16;11.00;99.90
47805;DHT22;33568;45.286;9.900;2024-02-23T02:09:44;11.00;99.90
47805;DHT22;33568;45.286;9.900;2024-02-23T02:12:10;11.10;99.90
47805;DHT22;33568;45.286;9.900;2024-02-23T02:14:37;11.10;99.90
47805;DHT22;33568;45.286;9.900;2024-02-23T02:17:03;11.10;99.90
47805;DHT22;33568;45.286;9.900;2024-02-23T02:19:29;11.10;99.90
47805;DHT22;33568;45.286;9.900;2024-02-23T02:21:56;11.10;99.90
47805;DHT22;33568;45.286;9.900;2024-02-23T02:24:24;11.10;99.90
47805;DHT22;33568;45.286;9.900;2024-02-23T02:26:51;11.10;99.90
47805;DHT22;33568;45.286;9.900;2024-02-23T02:29:17;11.10;99.90
47805;DHT22;33568;45.286;9.900;2024-02-23T02:31:43;11.10;99.90
47805;DHT22;33568;45.286;9.900;2024-02-23T02:34:10;11.10;99.90
47805;DHT22;33568;45.286;9.900;2024-02-23T02:36:39;11.00;99.90
47805;DHT22;33568;45.286;9.900;2024-02-23T02:39:05;11.10;99.90
47805;DHT22;33568;45.286;9.900;2024-02-23T02:41:33;11.10;99.90
47805;DHT22;33568;45.286;9.900;2024-02-23T02:43:59;11.10;99.90
47805;DHT22;33568;45.286;9.900;2024-02-23T02:46:26;11.20;99.90
47805;DHT22;33568;45.286;9.900;2024-02-23T02:48:52;11.20;99.90
47805;DHT22;33568;45.286;9.900;2024-02-23T02:51:19;11.20;99.90
47805;DHT22;33568;45.286;9.900;2024-02-23T02:53:45;11.10;99.90
47805;DHT22;33568;45.286;9.900;2024-02-23T02:56:11;11.10;99.90
47805;DHT22;33568;45.286;9.900;2024-02-23T02:58:37;11.20;99.90
47805;DHT22;33568;45.286;9.900;2024-02-23T03:01:04;11.20;99.90
47805;DHT22;33568;45.286;9.900;2024-02-23T03:03:30;11.20;99.90
47805;DHT22;33568;45.286;9.900;2024-02-23T03:05:56;11.20;99.90
47805;DHT22;33568;45.286;9.900;2024-02-23T03:08:23;11.20;99.90
47805;DHT22;33568;45.286;9.900;2024-02-23T03:10:49;11.20;99.90
47805;DHT22;33568;45.286;9.900;2024-02-23T03:13:16;11.30;99.90
47805;DHT22;33568;45.286;9.900;2024-02-23T03:15:42;11.30;99.90
47805;DHT22;33568;45.286;9.900;2024-02-23T03:18:08;11.20;99.90
47805;DHT22;33568;45.286;9.900;2024-02-23T03:20:38;11.30;99.90
47805;DHT22;33568;45.286;9.900;2024-02-23T03:23:05;11.30;99.90
47805;DHT22;33568;45.286;9.900;2024-02-23T03:25:31;11.20;99.90
47805;DHT22;33568;45.286;9.900;2024-02-23T03:27:57;11.20;99.90
47805;DHT22;33568;45.286;9.900;2024-02-23T03:30:24;11.20;99.90
47805;DHT22;33568;45.286;9.900;2024-02-23T03:32:50;11.10;99.90
47805;DHT22;33568;45.286;9.900;2024-02-23T03:35:16;11.20;99.90
47805;DHT22;33568;45.286;9.900;2024-02-23T03:37:43;11.10;99.90
47805;DHT22;33568;45.286;9.900;2024-02-23T03:40:09;11.10;99.90
47805;DHT22;33568;45.286;9.900;2024-02-23T03:42:37;11.10;99.90
47805;DHT22;33568;45.286;9.900;2024-02-23T03:45:04;11.10;99.90
47805;DHT22;33568;45.286;9.900;2024-02-23T03:47:31;11.10;99.90
47805;DHT22;33568;45.286;9.900;2024-02-23T03:49:57;11.10;99.90
47805;DHT22;33568;45.286;9.900;2024-02-23T03:52:24;11.10;99.90
47805;DHT22;33568;45.286;9.900;2024-02-23T03:54:50;11.10;99.90
47805;DHT22;33568;45.286;9.900;2024-02-23T03:57:18;11.00;99.90
47805;DHT22;33568;45.286;9.900;2024-02-23T03:59:54;11.00;99.90
47805;DHT22;33568;45.286;9.900;2024-02-23T04:02:21;11.00;99.90
47805;DHT22;33568;45.286;9.900;2024-02-23T04:04:48;11.00;99.90
47805;DHT22;33568;45.286;9.900;2024-02-23T04:07:14;11.00;99.90
47805;DHT22;33568;45.286;9.900;2024-02-23T04:09:41;11.00;99.90
47805;DHT22;33568;45.286;9.900;2024-02-23T04:12:07;11.00;99.90
47805;DHT22;33568;45.286;9.900;2024-02-23T04:14:34;11.00;99.90
47805;DHT22;33568;45.286;9.900;2024-02-23T04:17:03;11.00;99.90
47805;DHT22;33568;45.286;9.900;2024-02-23T04:19:29;11.00;99.90
47805;DHT22;33568;45.286;9.900;2024-02-23T04:21:56;11.00;99.90
47805;DHT22;33568;45.286;9.900;2024-02-23T04:24:22;10.90;99.90
47805;DHT22;33568;45.286;9.900;2024-02-23T04:26:48;11.00;99.90
47805;DHT22;33568;45.286;9.900;2024-02-23T04:29:14;11.00;99.90
47805;DHT22;33568;45.286;9.900;2024-02-23T04:31:41;11.00;99.90
47805;DHT22;33568;45.286;9.900;2024-02-23T04:34:07;11.00;99.90
47805;DHT22;33568;45.286;9.900;2024-02-23T04:36:33;11.00;99.90
47805;DHT22;33568;45.286;9.900;2024-02-23T04:39:00;11.00;99.90
47805;DHT22;33568;45.286;9.900;2024-02-23T04:41:26;10.90;99.90
47805;DHT22;33568;45.286;9.900;2024-02-23T04:43:53;10.90;99.90
47805;DHT22;33568;45.286;9.900;2024-02-23T04:46:25;10.90;99.90
47805;DHT22;33568;45.286;9.900;2024-02-23T04:48:51;10.90;99.90
47805;DHT22;33568;45.286;9.900;2024-02-23T04:51:17;10.80;99.90
47805;DHT22;33568;45.286;9.900;2024-02-23T04:53:44;10.80;99.90
47805;DHT22;33568;45.286;9.900;2024-02-23T04:56:11;10.80;99.90
47805;DHT22;33568;45.286;9.900;2024-02-23T04:58:37;10.90;99.90
47805;DHT22;33568;45.286;9.900;2024-02-23T05:01:03;10.80;99.90
47805;DHT22;33568;45.286;9.900;2024-02-23T05:03:30;10.70;99.90
47805;DHT22;33568;45.286;9.900;2024-02-23T05:05:57;10.70;99.90
47805;DHT22;33568;45.286;9.900;2024-02-23T05:08:24;10.70;99.90
47805;DHT22;33568;45.286;9.900;2024-02-23T05:10:50;10.70;99.90
47805;DHT22;33568;45.286;9.900;2024-02-23T05:13:17;10.80;99.90
47805;DHT22;33568;45.286;9.900;2024-02-23T05:15:43;10.90;99.90
47805;DHT22;33568;45.286;9.900;2024-02-23T05:18:11;10.90;99.90
47805;DHT22;33568;45.286;9.900;2024-02-23T05:20:37;10.80;99.90
47805;DHT22;33568;45.286;9.900;2024-02-23T05:23:04;10.80;99.90
47805;DHT22;33568;45.286;9.900;2024-02-23T05:25:30;10.80;99.90
47805;DHT22;33568;45.286;9.900;2024-02-23T05:27:56;10.80;99.90
47805;DHT22;33568;45.286;9.900;2024-02-23T05:30:23;10.80;99.90
47805;DHT22;33568;45.286;9.900;2024-02-23T05:32:50;10.80;99.90
47805;DHT22;33568;45.286;9.900;2024-02-23T05:35:17;10.80;99.90
47805;DHT22;33568;45.286;9.900;2024-02-23T05:37:44;10.80;99.90
47805;DHT22;33568;45.286;9.900;2024-02-23T05:40:10;10.80;99.90
47805;DHT22;33568;45.286;9.900;2024-02-23T05:42:37;10.80;99.90
47805;DHT22;33568;45.286;9.900;2024-02-23T05:45:04;10.80;99.90
47805;DHT22;33568;45.286;9.900;2024-02-23T05:47:36;10.80;99.90
47805;DHT22;33568;45.286;9.900;2024-02-23T05:50:03;10.80;99.90
47805;DHT22;33568;45.286;9.900;2024-02-23T05:52:31;10.80;99.90
47805;DHT22;33568;45.286;9.900;2024-02-23T05:54:59;10.80;99.90
47805;DHT22;33568;45.286;9.900;2024-02-23T05:57:26;10.80;99.90
47805;DHT22;33568;45.286;9.900;2024-02-23T05:59:53;10.80;99.90
47805;DHT22;33568;45.286;9.900;2024-02-23T06:02:21;10.80;99.90
47805;DHT22;33568;45.286;9.900;2024-02-23T06:04:48;10.80;99.90
47805;DHT22;33568;45.286;9.900;2024-02-23T06:07:14;10.80;99.90
47805;DHT22;33568;45.286;9.900;2024-02-23T06:09:44;10.70;99.90
47805;DHT22;33568;45.286;9.900;2024-02-23T06:12:10;10.70;99.90
47805;DHT22;33568;45.286;9.900;2024-02-23T06:14:36;10.70;99.90
47805;DHT22;33568;45.286;9.900;2024-02-23T06:17:03;10.70;99.90
47805;DHT22;33568;45.286;9.900;2024-02-23T06:19:30;10.70;99.90
47805;DHT22;33568;45.286;9.900;2024-02-23T06:21:56;10.80;99.90
47805;DHT22;33568;45.286;9.900;2024-02-23T06:24:22;10.80;99.90
47805;DHT22;33568;45.286;9.900;2024-02-23T06:26:49;10.80;99.90
47805;DHT22;33568;45.286;9.900;2024-02-23T06:29:15;10.80;99.90
47805;DHT22;33568;45.286;9.900;2024-02-23T06:31:42;10.80;99.90
47805;DHT22;33568;45.286;9.900;2024-02-23T06:34:15;10.80;99.90
47805;DHT22;33568;45.286;9.900;2024-02-23T06:36:42;10.80;99.90
47805;DHT22;33568;45.286;9.900;2024-02-23T06:39:08;10.90;99.90
47805;DHT22;33568;45.286;9.900;2024-02-23T06:41:34;10.80;99.90
47805;DHT22;33568;45.286;9.900;2024-02-23T06:44:01;10.90;99.90
47805;DHT22;33568;45.286;9.900;2024-02-23T06:46:27;10.90;99.90
47805;DHT22;33568;45.286;9.900;2024-02-23T06:48:54;10.90;99.90
47805;DHT22;33568;45.286;9.900;2024-02-23T06:51:20;10.90;99.90
47805;DHT22;33568;45.286;9.900;2024-02-23T06:53:47;10.90;99.90
47805;DHT22;33568;45.286;9.900;2024-02-23T06:56:13;10.90;99.90
47805;DHT22;33568;45.286;9.900;2024-02-23T06:58:40;11.00;99.90
47805;DHT22;33568;45.286;9.900;2024-02-23T07:01:06;10.90;99.90
47805;DHT22;33568;45.286;9.900;2024-02-23T07:03:36;11.00;99.90
47805;DHT22;33568;45.286;9.900;2024-02-23T07:06:03;11.00;99.90
47805;DHT22;33568;45.286;9.900;2024-02-23T07:08:29;11.00;99.90
47805;DHT22;33568;45.286;9.900;2024-02-23T07:10:56;11.00;99.90
47805;DHT22;33568;45.286;9.900;2024-02-23T07:13:22;11.00;99.90
47805;DHT22;33568;45.286;9.900;2024-02-23T07:15:48;11.00;99.90
47805;DHT22;33568;45.286;9.900;2024-02-23T07:18:15;11.10;99.90
47805;DHT22;33568;45.286;9.900;2024-02-23T07:20:42;11.00;99.90
47805;DHT22;33568;45.286;9.900;2024-02-23T07:23:08;11.10;99.90
47805;DHT22;33568;45.286;9.900;2024-02-23T07:25:35;11.10;99.90
47805;DHT22;33568;45.286;9.900;2024-02-23T07:28:02;11.10;99.90
47805;DHT22;33568;45.286;9.900;2024-02-23T07:30:28;11.10;99.90
47805;DHT22;33568;45.286;9.900;2024-02-23T07:32:54;11.00;99.90
47805;DHT22;33568;45.286;9.900;2024-02-23T07:35:21;11.00;99.90
47805;DHT22;33568;45.286;9.900;2024-02-23T07:37:47;11.00;99.90
47805;DHT22;33568;45.286;9.900;2024-02-23T07:40:14;11.00;99.90
47805;DHT22;33568;45.286;9.900;2024-02-23T07:42:40;11.00;99.90
47805;DHT22;33568;45.286;9.900;2024-02-23T07:45:07;11.10;99.90
47805;DHT22;33568;45.286;9.900;2024-02-23T07:47:35;11.10;99.90
47805;DHT22;33568;45.286;9.900;2024-02-23T07:50:02;11.10;99.90
47805;DHT22;33568;45.286;9.900;2024-02-23T07:52:28;11.10;99.90
47805;DHT22;33568;45.286;9.900;2024-02-23T07:54:55;11.10;99.90
47805;DHT22;33568;45.286;9.900;2024-02-23T07:57:21;11.10;99.90
47805;DHT22;33568;45.286;9.900;2024-02-23T07:59:47;11.10;99.90
47805;DHT22;33568;45.286;9.900;2024-02-23T08:02:14;11.10;99.90
47805;DHT22;33568;45.286;9.900;2024-02-23T08:04:41;11.10;99.90
47805;DHT22;33568;45.286;9.900;2024-02-23T08:07:08;11.20;99.90
47805;DHT22;33568;45.286;9.900;2024-02-23T08:09:35;11.20;99.90
47805;DHT22;33568;45.286;9.900;2024-02-23T08:12:01;11.20;99.90
47805;DHT22;33568;45.286;9.900;2024-02-23T08:14:27;11.20;99.90
47805;DHT22;33568;45.286;9.900;2024-02-23T08:16:54;11.20;99.90
47805;DHT22;33568;45.286;9.900;2024-02-23T08:19:20;11.20;99.90
47805;DHT22;33568;45.286;9.900;2024-02-23T08:21:49;11.20;99.90
47805;DHT22;33568;45.286;9.900;2024-02-23T08:24:16;11.20;99.90
47805;DHT22;33568;45.286;9.900;2024-02-23T08:26:43;11.30;99.90
47805;DHT22;33568;45.286;9.900;2024-02-23T08:29:10;11.20;99.90
47805;DHT22;33568;45.286;9.900;2024-02-23T08:31:36;11.20;99.90
47805;DHT22;33568;45.286;9.900;2024-02-23T08:34:03;11.20;99.90
47805;DHT22;33568;45.286;9.900;2024-02-23T08:36:29;11.30;99.90
47805;DHT22;33568;45.286;9.900;2024-02-23T08:38:55;11.40;99.90
47805;DHT22;33568;45.286;9.900;2024-02-23T08:41:22;11.40;99.90
47805;DHT22;33568;45.286;9.900;2024-02-23T08:43:56;11.40;99.90
47805;DHT22;33568;45.286;9.900;2024-02-23T08:46:25;11.40;99.90
47805;DHT22;33568;45.286;9.900;2024-02-23T08:48:52;11.50;99.90
47805;DHT22;33568;45.286;9.900;2024-02-23T08:51:21;11.60;99.90
47805;DHT22;33568;45.286;9.900;2024-02-23T08:53:48;11.60;99.90
47805;DHT22;33568;45.286;9.900;2024-02-23T08:56:15;11.60;99.90
47805;DHT22;33568;45.286;9.900;2024-02-23T08:58:42;11.60;99.90
47805;DHT22;33568;45.286;9.900;2024-02-23T09:01:08;11.60;99.90
47805;DHT22;33568;45.286;9.900;2024-02-23T09:03:35;11.50;99.90
47805;DHT22;33568;45.286;9.900;2024-02-23T09:06:02;11.60;99.90
47805;DHT22;33568;45.286;9.900;2024-02-23T09:08:38;11.60;99.90
47805;DHT22;33568;45.286;9.900;2024-02-23T09:11:08;11.60;99.90
47805;DHT22;33568;45.286;9.900;2024-02-23T09:13:34;11.70;99.90
47805;DHT22;33568;45.286;9.900;2024-02-23T09:16:01;11.60;99.90
47805;DHT22;33568;45.286;9.900;2024-02-23T09:18:30;11.60;99.90
47805;DHT22;33568;45.286;9.900;2024-02-23T09:20:56;11.60;99.90
47805;DHT22;33568;45.286;9.900;2024-02-23T09:23:29;11.60;99.90
47805;DHT22;33568;45.286;9.900;2024-02-23T09:25:55;11.70;99.90
47805;DHT22;33568;45.286;9.900;2024-02-23T09:28:21;11.70;99.90
47805;DHT22;33568;45.286;9.900;2024-02-23T09:30:48;11.80;99.90
47805;DHT22;33568;45.286;9.900;2024-02-23T09:33:17;11.80;99.90
47805;DHT22;33568;45.286;9.900;2024-02-23T09:35:46;11.90;99.90
47805;DHT22;33568;45.286;9.900;2024-02-23T09:38:12;11.90;99.90
47805;DHT22;33568;45.286;9.900;2024-02-23T09:40:39;11.90;99.90
47805;DHT22;33568;45.286;9.900;2024-02-23T09:43:08;11.80;99.90
47805;DHT22;33568;45.286;9.900;2024-02-23T09:45:34;11.80;99.90
47805;DHT22;33568;45.286;9.900;2024-02-23T09:48:02;11.90;99.90
47805;DHT22;33568;45.286;9.900;2024-02-23T09:50:32;11.90;99.90
47805;DHT22;33568;45.286;9.900;2024-02-23T09:52:59;11.90;99.90
47805;DHT22;33568;45.286;9.900;2024-02-23T09:55:27;11.90;99.90
47805;DHT22;33568;45.286;9.900;2024-02-23T09:57:55;12.00;99.90
47805;DHT22;33568;45.286;9.900;2024-02-23T10:00:24;11.90;99.90
47805;DHT22;33568;45.286;9.900;2024-02-23T10:02:50;12.00;99.90
47805;DHT22;33568;45.286;9.900;2024-02-23T10:05:17;11.90;99.90
47805;DHT22;33568;45.286;9.900;2024-02-23T10:07:47;12.00;99.90
47805;DHT22;33568;45.286;9.900;2024-02-23T10:10:33;12.00;99.90
47805;DHT22;33568;45.286;9.900;2024-02-23T10:13:00;12.00;99.90
47805;DHT22;33568;45.286;9.900;2024-02-23T10:15:29;12.10;99.90
47805;DHT22;33568;45.286;9.900;2024-02-23T10:17:56;12.10;99.90
47805;DHT22;33568;45.286;9.900;2024-02-23T10:20:22;12.20;99.90
47805;DHT22;33568;45.286;9.900;2024-02-23T10:22:49;12.00;99.90
47805;DHT22;33568;45.286;9.900;2024-02-23T10:25:16;12.10;99.90
47805;DHT22;33568;45.286;9.900;2024-02-23T10:27:43;12.10;99.90
47805;DHT22;33568;45.286;9.900;2024-02-23T10:30:13;12.20;99.90
47805;DHT22;33568;45.286;9.900;2024-02-23T10:32:41;12.20;99.90
47805;DHT22;33568;45.286;9.900;2024-02-23T10:35:13;12.30;99.90
47805;DHT22;33568;45.286;9.900;2024-02-23T10:37:43;12.30;99.90
47805;DHT22;33568;45.286;9.900;2024-02-23T10:40:12;12.30;99.90
47805;DHT22;33568;45.286;9.900;2024-02-23T10:42:41;12.40;99.90
47805;DHT22;33568;45.286;9.900;2024-02-23T10:45:10;12.40;99.90
47805;DHT22;33568;45.286;9.900;2024-02-23T10:47:37;12.40;99.90
47805;DHT22;33568;45.286;9.900;2024-02-23T10:50:03;12.30;99.90
47805;DHT22;33568;45.286;9.900;2024-02-23T10:52:32;12.40;99.90
47805;DHT22;33568;45.286;9.900;2024-02-23T10:55:00;12.40;99.90
47805;DHT22;33568;45.286;9.900;2024-02-23T10:57:30;12.50;99.90
47805;DHT22;33568;45.286;9.900;2024-02-23T11:00:00;12.50;99.90
47805;DHT22;33568;45.286;9.900;2024-02-23T11:02:28;12.50;99.90
47805;DHT22;33568;45.286;9.900;2024-02-23T11:04:57;12.50;99.90
47805;DHT22;33568;45.286;9.900;2024-02-23T11:07:29;12.50;99.90
47805;DHT22;33568;45.286;9.900;2024-02-23T11:09:59;12.40;99.90
47805;DHT22;33568;45.286;9.900;2024-02-23T11:12:28;12.40;99.90
47805;DHT22;33568;45.286;9.900;2024-02-23T11:14:59;12.40;99.90
47805;DHT22;33568;45.286;9.900;2024-02-23T11:17:31;12.50;99.90
47805;DHT22;33568;45.286;9.900;2024-02-23T11:20:02;12.50;99.90
47805;DHT22;33568;45.286;9.900;2024-02-23T11:22:34;12.40;99.90
47805;DHT22;33568;45.286;9.900;2024-02-23T11:25:05;12.40;99.90
47805;DHT22;33568;45.286;9.900;2024-02-23T11:27:35;12.40;99.90
47805;DHT22;33568;45.286;9.900;2024-02-23T11:30:09;12.40;99.90
47805;DHT22;33568;45.286;9.900;2024-02-23T11:32:44;12.50;99.90
47805;DHT22;33568;45.286;9.900;2024-02-23T11:35:13;12.50;99.90
47805;DHT22;33568;45.286;9.900;2024-02-23T11:37:56;12.50;99.90
47805;DHT22;33568;45.286;9.900;2024-02-23T11:40:26;12.40;99.90
47805;DHT22;33568;45.286;9.900;2024-02-23T11:42:56;12.40;99.90
47805;DHT22;33568;45.286;9.900;2024-02-23T11:45:28;12.40;99.90
47805;DHT22;33568;45.286;9.900;2024-02-23T11:47:55;12.40;99.90
47805;DHT22;33568;45.286;9.900;2024-02-23T11:50:22;12.40;99.90
47805;DHT22;33568;45.286;9.900;2024-02-23T11:52:48;12.30;99.90
47805;DHT22;33568;45.286;9.900;2024-02-23T11:55:22;12.30;99.90
47805;DHT22;33568;45.286;9.900;2024-02-23T11:57:49;12.30;99.90
47805;DHT22;33568;45.286;9.900;2024-02-23T12:00:16;12.30;99.90
47805;DHT22;33568;45.286;9.900;2024-02-23T12:02:43;12.30;99.90
47805;DHT22;33568;45.286;9.900;2024-02-23T12:05:12;12.20;99.90
47805;DHT22;33568;45.286;9.900;2024-02-23T12:07:38;12.30;99.90
47805;DHT22;33568;45.286;9.900;2024-02-23T12:10:05;12.20;99.90
47805;DHT22;33568;45.286;9.900;2024-02-23T12:12:32;12.30;99.90
47805;DHT22;33568;45.286;9.900;2024-02-23T12:14:59;12.30;99.90
47805;DHT22;33568;45.286;9.900;2024-02-23T12:17:25;12.30;99.90
47805;DHT22;33568;45.286;9.900;2024-02-23T12:20:02;12.30;99.90
47805;DHT22;33568;45.286;9.900;2024-02-23T12:22:29;12.40;99.90
47805;DHT22;33568;45.286;9.900;2024-02-23T12:24:59;12.40;99.90
47805;DHT22;33568;45.286;9.900;2024-02-23T12:27:26;12.40;99.90
47805;DHT22;33568;45.286;9.900;2024-02-23T12:29:58;12.50;99.90
47805;DHT22;33568;45.286;9.900;2024-02-23T12:32:25;12.60;99.90
47805;DHT22;33568;45.286;9.900;2024-02-23T12:34:52;12.80;99.90
47805;DHT22;33568;45.286;9.900;2024-02-23T12:37:18;12.80;99.90
47805;DHT22;33568;45.286;9.900;2024-02-23T12:39:45;12.80;99.90
47805;DHT22;33568;45.286;9.900;2024-02-23T12:42:11;12.90;99.90
47805;DHT22;33568;45.286;9.900;2024-02-23T12:44:38;13.00;99.90
47805;DHT22;33568;45.286;9.900;2024-02-23T12:47:04;13.10;99.90
47805;DHT22;33568;45.286;9.900;2024-02-23T12:49:31;13.20;99.90
47805;DHT22;33568;45.286;9.900;2024-02-23T12:52:02;13.20;99.90
47805;DHT22;33568;45.286;9.900;2024-02-23T12:54:29;13.40;99.90
47805;DHT22;33568;45.286;9.900;2024-02-23T12:56:55;13.50;99.90
47805;DHT22;33568;45.286;9.900;2024-02-23T12:59:23;13.50;99.90
47805;DHT22;33568;45.286;9.900;2024-02-23T13:01:49;13.50;99.90
47805;DHT22;33568;45.286;9.900;2024-02-23T13:04:16;13.40;99.90
47805;DHT22;33568;45.286;9.900;2024-02-23T13:06:42;13.50;99.90
47805;DHT22;33568;45.286;9.900;2024-02-23T13:09:09;13.40;99.90
47805;DHT22;33568;45.286;9.900;2024-02-23T13:11:38;13.50;99.90
47805;DHT22;33568;45.286;9.900;2024-02-23T13:14:05;13.50;99.90
47805;DHT22;33568;45.286;9.900;2024-02-23T13:16:31;13.50;99.90
47805;DHT22;33568;45.286;9.900;2024-02-23T13:18:59;13.40;99.90
47805;DHT22;33568;45.286;9.900;2024-02-23T13:21:28;13.30;99.90
47805;DHT22;33568;45.286;9.900;2024-02-23T13:23:55;13.20;99.90
47805;DHT22;33568;45.286;9.900;2024-02-23T13:26:21;13.10;99.90
47805;DHT22;33568;45.286;9.900;2024-02-23T13:28:50;13.10;99.90
47805;DHT22;33568;45.286;9.900;2024-02-23T13:31:17;13.10;99.90
47805;DHT22;33568;45.286;9.900;2024-02-23T13:33:44;13.10;99.90
47805;DHT22;33568;45.286;9.900;2024-02-23T13:36:11;13.00;99.90
47805;DHT22;33568;45.286;9.900;2024-02-23T13:38:38;13.00;99.90
47805;DHT22;33568;45.286;9.900;2024-02-23T13:41:06;13.00;99.90
47805;DHT22;33568;45.286;9.900;2024-02-23T13:43:32;13.00;99.90
47805;DHT22;33568;45.286;9.900;2024-02-23T13:46:02;13.00;99.90
47805;DHT22;33568;45.286;9.900;2024-02-23T13:48:30;12.90;99.90
47805;DHT22;33568;45.286;9.900;2024-02-23T13:50:57;13.00;99.90
47805;DHT22;33568;45.286;9.900;2024-02-23T13:53:23;13.10;99.90
47805;DHT22;33568;45.286;9.900;2024-02-23T13:55:53;13.10;99.90
47805;DHT22;33568;45.286;9.900;2024-02-23T13:58:19;13.10;99.90
47805;DHT22;33568;45.286;9.900;2024-02-23T14:00:48;13.00;99.90
47805;DHT22;33568;45.286;9.900;2024-02-23T14:03:18;12.90;99.90
47805;DHT22;33568;45.286;9.900;2024-02-23T14:05:47;12.80;99.90
47805;DHT22;33568;45.286;9.900;2024-02-23T14:08:14;12.80;99.90
47805;DHT22;33568;45.286;9.900;2024-02-23T14:10:40;12.80;99.90
47805;DHT22;33568;45.286;9.900;2024-02-23T14:13:11;12.90;99.90
47805;DHT22;33568;45.286;9.900;2024-02-23T14:15:40;12.90;99.90
47805;DHT22;33568;45.286;9.900;2024-02-23T14:18:06;12.90;99.90
47805;DHT22;33568;45.286;9.900;2024-02-23T14:20:33;12.80;99.90
47805;DHT22;33568;45.286;9.900;2024-02-23T14:22:59;12.90;99.90
47805;DHT22;33568;45.286;9.900;2024-02-23T14:25:29;12.80;99.90
47805;DHT22;33568;45.286;9.900;2024-02-23T14:27:55;12.90;99.90
47805;DHT22;33568;45.286;9.900;2024-02-23T14:30:22;12.90;99.90
47805;DHT22;33568;45.286;9.900;2024-02-23T14:32:54;12.80;99.90
47805;DHT22;33568;45.286;9.900;2024-02-23T14:35:20;12.80;99.90
47805;DHT22;33568;45.286;9.900;2024-02-23T14:37:46;12.80;99.90
47805;DHT22;33568;45.286;9.900;2024-02-23T14:40:15;12.80;99.90
47805;DHT22;33568;45.286;9.900;2024-02-23T14:42:47;12.70;99.90
47805;DHT22;33568;45.286;9.900;2024-02-23T14:45:14;12.70;99.90
47805;DHT22;33568;45.286;9.900;2024-02-23T14:47:42;12.70;99.90
47805;DHT22;33568;45.286;9.900;2024-02-23T14:50:10;12.60;99.90
47805;DHT22;33568;45.286;9.900;2024-02-23T14:52:40;12.50;99.90
47805;DHT22;33568;45.286;9.900;2024-02-23T14:55:06;12.40;99.90
47805;DHT22;33568;45.286;9.900;2024-02-23T14:57:33;12.30;99.90
47805;DHT22;33568;45.286;9.900;2024-02-23T14:59:59;12.40;99.90
47805;DHT22;33568;45.286;9.900;2024-02-23T15:02:25;12.30;99.90
47805;DHT22;33568;45.286;9.900;2024-02-23T15:04:52;12.40;99.90
47805;DHT22;33568;45.286;9.900;2024-02-23T15:07:18;12.40;99.90
47805;DHT22;33568;45.286;9.900;2024-02-23T15:09:44;12.40;99.90
47805;DHT22;33568;45.286;9.900;2024-02-23T15:12:11;12.40;99.90
47805;DHT22;33568;45.286;9.900;2024-02-23T15:14:37;12.40;99.90
47805;DHT22;33568;45.286;9.900;2024-02-23T15:17:04;12.50;99.90
47805;DHT22;33568;45.286;9.900;2024-02-23T15:19:30;12.40;99.90
47805;DHT22;33568;45.286;9.900;2024-02-23T15:21:57;12.50;99.90
47805;DHT22;33568;45.286;9.900;2024-02-23T15:24:23;12.70;99.90
47805;DHT22;33568;45.286;9.900;2024-02-23T15:26:51;12.80;99.90
47805;DHT22;33568;45.286;9.900;2024-02-23T15:29:17;12.80;99.90